Time;durP1;ratioP1;P1;durP2;ratioP2;P2;SDS_P1;SDS_P2;PMS_P1;PMS_P2;Temp;Humidity;BMP_temperature;BMP_pressure;BME280_temperature;BME280_humidity;BME280_pressure;Samples;Min_cycle;Max_cycle;Signal;HPM_P1;HPM_P2
2022/01/04 00:02:01;;;;;;;6.70;4.82;;;;;;;10.08;68.15;100582.84;4994010;28;20240;-82
2022/01/04 00:04:27;;;;;;;6.63;4.93;;;;;;;9.99;67.33;100585.44;4993653;28;20178;-81
2022/01/04 00:06:53;;;;;;;9.63;4.85;;;;;;;10.16;66.85;100589.56;4993446;28;20649;-82
2022/01/04 00:09:19;;;;;;;7.97;4.50;;;;;;;10.17;67.05;100596.47;4993018;28;20685;-83
2022/01/04 00:14:17;;;;;;;11.23;6.63;;;;;;;10.17;67.33;100609.28;5001851;28;20576;-81
2022/01/04 00:16:44;;;;;;;15.57;6.65;;;;;;;10.09;66.88;100605.09;5002207;28;20184;-84
2022/01/04 00:19:09;;;;;;;8.85;5.32;;;;;;;9.71;67.31;100565.00;4996826;28;20177;-82
2022/01/04 00:21:36;;;;;;;13.35;6.18;;;;;;;9.95;68.22;100606.41;5000741;28;20177;-81
2022/01/04 00:24:01;;;;;;;7.78;5.13;;;;;;;10.01;67.57;100613.75;5002265;28;20265;-79
2022/01/04 00:26:28;;;;;;;12.32;6.78;;;;;;;9.94;67.44;100602.06;4998852;28;20197;-82
2022/01/04 00:28:53;;;;;;;14.70;7.57;;;;;;;9.79;67.59;100593.84;4995147;28;20246;-82
2022/01/04 00:31:19;;;;;;;11.50;6.47;;;;;;;9.86;68.05;100613.25;4995603;28;20575;-82
2022/01/04 00:33:44;;;;;;;11.55;6.63;;;;;;;9.82;67.62;100601.81;4961465;28;20185;-81
2022/01/04 00:36:10;;;;;;;8.77;5.28;;;;;;;9.67;67.85;100568.03;5001905;28;20185;-82
2022/01/04 00:38:36;;;;;;;11.85;5.65;;;;;;;9.87;67.84;100600.56;5001734;28;20274;-79
2022/01/04 00:41:02;;;;;;;8.10;4.57;;;;;;;9.88;67.88;100622.88;4989287;28;20213;-80
2022/01/04 00:43:28;;;;;;;8.15;4.65;;;;;;;9.83;68.12;100643.66;5008521;28;20181;-79
2022/01/04 00:45:53;;;;;;;11.02;5.28;;;;;;;9.84;67.77;100651.47;5006515;28;20180;-80
2022/01/04 00:50:46;;;;;;;7.28;5.10;;;;;;;9.67;68.22;100654.13;4999325;28;20277;-80
2022/01/04 00:53:12;;;;;;;11.00;6.35;;;;;;;9.63;68.72;100654.59;4983070;28;20239;-82
2022/01/04 00:55:38;;;;;;;7.50;5.55;;;;;;;9.52;69.65;100642.44;4981142;28;20177;-82
2022/01/04 00:58:05;;;;;;;9.52;5.38;;;;;;;9.29;69.51;100627.50;4993841;28;20184;-82
2022/01/04 01:00:34;;;;;;;9.00;5.10;;;;;;;9.44;70.25;100647.75;4975708;28;20251;-82
2022/01/04 01:02:59;;;;;;;9.60;5.22;;;;;;;9.51;69.76;100640.66;4975380;28;20213;-83
2022/01/04 01:05:26;;;;;;;6.97;4.80;;;;;;;9.34;70.03;100639.03;4992615;28;20281;-81
2022/01/04 01:07:56;;;;;;;8.38;5.07;;;;;;;9.43;70.03;100632.22;4975310;28;20631;-82
2022/01/04 01:12:54;;;;;;;10.55;5.28;;;;;;;9.45;69.10;100639.31;4992627;28;20667;-82
2022/01/04 01:15:20;;;;;;;13.18;5.35;;;;;;;9.48;69.88;100642.16;4992486;28;20201;-83
2022/01/04 01:17:47;;;;;;;10.88;5.15;;;;;;;9.42;70.13;100644.13;4992890;28;20205;-82
2022/01/04 01:20:14;;;;;;;7.43;5.07;;;;;;;9.46;69.67;100638.53;4992435;28;20670;-82
2022/01/04 01:22:40;;;;;;;10.93;5.80;;;;;;;9.14;69.28;100578.34;4992830;28;20177;-83
2022/01/04 01:25:07;;;;;;;9.60;5.57;;;;;;;9.38;70.02;100644.59;4993219;28;20209;-83
2022/01/04 01:27:33;;;;;;;9.68;4.88;;;;;;;8.86;69.72;100552.72;4992353;28;20232;-83
2022/01/04 01:29:58;;;;;;;6.38;4.65;;;;;;;9.41;70.02;100632.09;4992394;28;20597;-83
2022/01/04 01:32:24;;;;;;;11.95;5.35;;;;;;;9.40;69.83;100631.94;4992740;28;20185;-82
2022/01/04 01:34:50;;;;;;;7.32;5.13;;;;;;;9.34;70.19;100626.25;4992968;28;20225;-81
2022/01/04 01:37:15;;;;;;;9.30;5.78;;;;;;;9.23;70.87;100615.00;4992312;28;20208;-83
2022/01/04 01:39:41;;;;;;;7.72;5.78;;;;;;;9.33;70.00;100647.47;4992334;28;20754;-81
2022/01/04 01:42:07;;;;;;;13.43;6.57;;;;;;;9.08;70.96;100609.31;4992447;28;20184;-83
2022/01/04 01:44:35;;;;;;;8.65;5.80;;;;;;;9.31;70.87;100638.75;4992423;28;20197;-83
2022/01/04 01:47:02;;;;;;;16.33;7.13;;;;;;;9.13;70.61;100643.91;4992598;28;20178;-84
2022/01/04 01:49:28;;;;;;;9.55;6.13;;;;;;;9.08;70.44;100636.56;4992264;28;20369;-83
2022/01/04 01:51:54;;;;;;;10.15;6.30;;;;;;;9.05;71.65;100638.81;4975184;28;20366;-82
2022/01/04 01:54:22;;;;;;;13.20;7.07;;;;;;;8.99;71.29;100628.91;4992998;28;20244;-82
2022/01/04 01:56:47;;;;;;;9.40;5.78;;;;;;;9.16;70.86;100627.97;4993652;28;20161;-82
2022/01/04 01:59:13;;;;;;;8.15;5.28;;;;;;;8.46;71.19;100535.19;4997109;28;20725;-82
2022/01/04 02:01:39;;;;;;;10.88;6.25;;;;;;;9.09;71.53;100630.69;4997103;28;20170;-83
2022/01/04 02:04:04;;;;;;;11.93;6.05;;;;;;;9.08;71.74;100621.22;4995415;28;20180;-84
2022/01/04 02:06:31;;;;;;;8.40;5.65;;;;;;;9.05;71.24;100624.38;4977841;28;20181;-81
2022/01/04 02:09:01;;;;;;;9.75;6.43;;;;;;;8.87;72.72;100607.25;4995618;28;20173;-85
2022/01/04 02:11:28;;;;;;;13.23;5.82;;;;;;;8.97;72.22;100621.09;4995473;28;20629;-83
2022/01/04 02:13:55;;;;;;;10.45;5.30;;;;;;;8.91;71.85;100602.63;4995249;28;20169;-80
2022/01/04 02:16:21;;;;;;;11.02;6.38;;;;;;;8.95;71.32;100602.16;4995432;28;20205;-83
2022/01/04 02:18:46;;;;;;;13.98;6.22;;;;;;;8.93;72.12;100613.88;4977682;28;20739;-83
2022/01/04 02:21:12;;;;;;;8.90;5.75;;;;;;;8.76;71.72;100590.91;4995493;28;20213;-84
2022/01/04 02:23:37;;;;;;;12.77;6.75;;;;;;;8.90;72.32;100605.00;4996563;28;20225;-82
2022/01/04 02:26:03;;;;;;;11.40;6.45;;;;;;;8.75;72.60;100602.78;4997514;28;20166;-83
2022/01/04 02:28:30;;;;;;;9.20;5.72;;;;;;;8.81;73.09;100622.91;4995894;28;20189;-82
2022/01/04 02:30:56;;;;;;;8.93;5.97;;;;;;;8.62;72.68;100587.00;4994951;28;20174;-83
2022/01/04 02:33:21;;;;;;;11.27;6.50;;;;;;;8.75;72.98;100620.69;4995359;28;20195;-83
2022/01/04 02:35:47;;;;;;;10.52;6.38;;;;;;;8.68;72.68;100602.03;4995628;28;20269;-81
2022/01/04 02:38:12;;;;;;;10.25;5.72;;;;;;;8.84;72.73;100619.75;4995269;28;20177;-81
2022/01/04 02:40:38;;;;;;;11.25;6.25;;;;;;;8.69;72.86;100597.09;4995074;28;20268;-81
2022/01/04 02:43:03;;;;;;;10.43;6.22;;;;;;;8.76;72.60;100629.25;4995730;28;20181;-84
2022/01/04 02:45:29;;;;;;;9.88;6.10;;;;;;;8.57;72.84;100593.34;4996597;28;20663;-84
2022/01/04 02:47:54;;;;;;;9.90;5.97;;;;;;;8.43;73.33;100584.31;4996921;28;20170;-82
2022/01/04 02:50:20;;;;;;;14.07;6.57;;;;;;;8.61;73.79;100625.19;4997643;28;20174;-82
2022/01/04 02:52:46;;;;;;;11.60;5.95;;;;;;;8.65;73.54;100638.38;4997133;28;20166;-81
2022/01/04 02:55:14;;;;;;;9.98;6.50;;;;;;;8.70;73.66;100656.72;4997004;28;20177;-83
2022/01/04 02:57:41;;;;;;;12.65;6.30;;;;;;;8.63;73.52;100664.53;4996740;28;20657;-84
2022/01/04 03:00:11;;;;;;;12.52;6.80;;;;;;;8.47;73.70;100644.25;4996603;28;20201;-82
2022/01/04 03:02:38;;;;;;;7.88;5.80;;;;;;;8.58;74.37;100665.75;4996437;28;20177;-82
2022/01/04 03:05:05;;;;;;;10.15;6.22;;;;;;;8.65;73.59;100674.16;4997855;28;20180;-82
2022/01/04 03:07:32;;;;;;;8.25;5.57;;;;;;;8.62;73.49;100665.28;4996780;28;20170;-81
2022/01/04 03:09:58;;;;;;;9.80;5.68;;;;;;;8.67;72.96;100677.75;4995058;28;20819;-83
2022/01/04 03:12:24;;;;;;;11.38;6.55;;;;;;;8.40;73.96;100649.50;4995118;28;20213;-82
2022/01/04 03:14:50;;;;;;;13.85;7.20;;;;;;;8.32;74.03;100643.63;4994813;28;20673;-82
2022/01/04 03:17:16;;;;;;;8.88;6.30;;;;;;;8.38;73.40;100641.72;4978187;28;20207;-81
2022/01/04 03:19:42;;;;;;;16.10;6.20;;;;;;;8.25;74.16;100643.72;4994814;28;20221;-82
2022/01/04 03:22:07;;;;;;;10.75;6.32;;;;;;;8.36;74.19;100657.59;4999060;28;20264;-81
2022/01/04 03:24:34;;;;;;;11.65;7.20;;;;;;;8.33;74.11;100650.50;4977999;28;20204;-83
2022/01/04 03:27:00;;;;;;;11.98;6.15;;;;;;;8.45;74.33;100668.75;4994762;28;20170;-82
2022/01/04 03:29:26;;;;;;;14.75;6.88;;;;;;;8.40;74.23;100675.94;4994815;28;20195;-80
2022/01/04 03:31:52;;;;;;;12.15;7.10;;;;;;;8.27;74.99;100671.22;4994185;28;20240;-81
2022/01/04 03:34:18;;;;;;;9.45;6.45;;;;;;;8.32;75.01;100687.00;4994264;28;20177;-84
2022/01/04 03:36:44;;;;;;;11.23;6.57;;;;;;;8.28;75.16;100669.56;4993671;28;20240;-82
2022/01/04 03:39:11;;;;;;;11.68;6.95;;;;;;;8.24;74.44;100664.91;4993958;28;20182;-81
2022/01/04 03:41:40;;;;;;;11.75;7.43;;;;;;;8.22;74.75;100685.16;4993937;28;20201;-82
2022/01/04 03:44:07;;;;;;;11.25;6.70;;;;;;;8.10;74.85;100661.88;4976457;28;20197;-81
2022/01/04 03:46:33;;;;;;;11.50;7.18;;;;;;;7.82;75.13;100588.44;4994069;28;20654;-81
2022/01/04 03:48:59;;;;;;;11.65;6.72;;;;;;;7.72;74.89;100590.78;4993516;28;20173;-81
2022/01/04 03:51:24;;;;;;;11.65;6.85;;;;;;;8.12;75.20;100671.34;4994342;28;20177;-82
2022/01/04 03:53:50;;;;;;;14.45;6.72;;;;;;;8.16;75.55;100679.47;4993490;28;20236;-83
2022/01/04 03:56:16;;;;;;;13.05;7.50;;;;;;;8.19;75.55;100689.97;4993738;28;20177;-84
2022/01/04 03:58:42;;;;;;;9.68;6.35;;;;;;;8.08;75.39;100672.69;4993592;28;20562;-82
2022/01/04 04:01:07;;;;;;;11.20;6.75;;;;;;;8.16;75.61;100679.47;4993586;28;20205;-81
2022/01/04 04:03:33;;;;;;;11.60;6.60;;;;;;;8.25;75.26;100694.78;4976233;28;20185;-82
2022/01/04 04:05:59;;;;;;;11.35;6.57;;;;;;;8.23;75.95;100701.41;4977949;28;20192;-82
2022/01/04 04:08:25;;;;;;;11.82;6.40;;;;;;;7.87;75.43;100623.84;4994542;28;20177;-81
2022/01/04 04:10:50;;;;;;;12.10;6.45;;;;;;;7.57;74.94;100577.38;5000879;28;20217;-82
2022/01/04 04:13:16;;;;;;;10.27;6.88;;;;;;;7.93;75.27;100645.63;5013389;28;20189;-82
2022/01/04 04:15:41;;;;;;;13.20;6.38;;;;;;;8.32;75.50;100710.00;5013796;28;20188;-81
2022/01/04 04:18:09;;;;;;;13.57;6.75;;;;;;;7.12;75.30;100504.06;5000902;28;20177;-82
2022/01/04 04:20:36;;;;;;;12.73;7.00;;;;;;;7.87;75.02;100641.69;5017326;28;20201;-81
2022/01/04 04:23:02;;;;;;;11.07;5.88;;;;;;;8.35;75.55;100702.63;5018376;28;20184;-79
2022/01/04 04:25:28;;;;;;;12.82;6.85;;;;;;;8.37;75.03;100713.88;5018662;28;20238;-79
2022/01/04 04:27:53;;;;;;;11.27;6.80;;;;;;;8.32;74.58;100687.00;5018509;28;20158;-80
2022/01/04 04:30:19;;;;;;;10.98;6.68;;;;;;;8.43;74.94;100711.97;5018569;28;20196;-81
2022/01/04 04:32:44;;;;;;;13.10;7.45;;;;;;;8.48;73.89;100715.00;5018416;28;20163;-79
2022/01/04 04:35:10;;;;;;;12.38;6.40;;;;;;;8.55;73.59;100713.22;5016805;28;20181;-80
2022/01/04 04:37:36;;;;;;;10.55;6.50;;;;;;;8.53;73.72;100701.91;5017990;28;20176;-79
2022/01/04 04:40:02;;;;;;;12.27;7.05;;;;;;;8.39;74.59;100704.78;5017999;28;20270;-78
2022/01/04 04:42:28;;;;;;;11.95;7.15;;;;;;;8.45;74.14;100712.16;5017515;28;20179;-78
2022/01/04 04:44:53;;;;;;;14.48;7.70;;;;;;;8.48;73.27;100717.56;5017856;28;20177;-78
2022/01/04 04:47:19;;;;;;;12.95;8.23;;;;;;;8.43;73.85;100708.53;5017801;28;20162;-79
2022/01/04 04:49:44;;;;;;;16.25;7.57;;;;;;;8.58;73.72;100717.72;5001224;28;20153;-79
2022/01/04 04:52:10;;;;;;;12.13;6.72;;;;;;;8.53;73.51;100714.69;5017234;28;20169;-80
2022/01/04 04:54:35;;;;;;;20.83;11.07;;;;;;;8.30;74.33;100696.16;5003390;28;20169;-81
2022/01/04 04:57:01;;;;;;;28.88;13.38;;;;;;;8.33;74.15;100707.56;4980357;28;20208;-80
2022/01/04 04:59:28;;;;;;;12.82;7.93;;;;;;;8.43;74.33;100695.75;4994713;28;20558;-80
2022/01/04 05:01:53;;;;;;;13.35;8.32;;;;;;;8.41;73.85;100689.59;4994886;28;20668;-81
2022/01/04 05:04:19;;;;;;;16.58;8.20;;;;;;;8.41;74.49;100700.75;4977255;28;20171;-80
2022/01/04 05:06:45;;;;;;;17.90;9.32;;;;;;;7.94;74.00;100634.66;4994218;28;20629;-80
2022/01/04 05:09:10;;;;;;;15.50;7.70;;;;;;;8.40;74.23;100696.34;4993189;28;20646;-78
2022/01/04 05:11:36;;;;;;;19.08;8.63;;;;;;;8.31;74.22;100695.41;4993998;28;20205;-80
2022/01/04 05:14:01;;;;;;;16.33;8.18;;;;;;;8.33;75.03;100696.47;4976975;28;20181;-83
2022/01/04 05:16:27;;;;;;;15.20;8.38;;;;;;;8.26;74.73;100659.22;4995376;28;20185;-85
2022/01/04 05:18:54;;;;;;;15.10;8.55;;;;;;;8.36;74.45;100680.56;4996581;28;20180;-84
2022/01/04 05:21:19;;;;;;;18.25;8.57;;;;;;;8.35;74.38;100684.78;4993688;28;20211;-82
2022/01/04 05:23:45;;;;;;;16.77;9.07;;;;;;;8.42;74.43;100699.97;4976318;28;20634;-82
2022/01/04 05:26:10;;;;;;;13.60;9.00;;;;;;;8.29;74.38;100656.06;4994418;28;20180;-81
2022/01/04 05:28:36;;;;;;;13.65;8.25;;;;;;;8.44;74.38;100672.94;4993280;28;20178;-81
2022/01/04 05:31:01;;;;;;;15.50;8.80;;;;;;;8.52;73.67;100696.69;4993113;28;20180;-82
2022/01/04 05:33:27;;;;;;;15.35;9.85;;;;;;;8.52;74.05;100691.56;4996141;28;20181;-80
2022/01/04 05:35:54;;;;;;;13.68;9.18;;;;;;;8.46;73.77;100671.44;4995470;28;20653;-80
2022/01/04 05:38:19;;;;;;;17.60;8.68;;;;;;;8.61;73.44;100686.47;4979826;28;20176;-81
2022/01/04 05:40:45;;;;;;;16.73;8.77;;;;;;;8.58;73.34;100697.28;4995992;28;20197;-82
2022/01/04 05:43:10;;;;;;;15.88;9.32;;;;;;;8.38;73.98;100664.69;4995671;28;20231;-81
2022/01/04 05:45:36;;;;;;;19.08;8.55;;;;;;;8.45;73.15;100690.06;4995135;28;20180;-81
2022/01/04 05:48:01;;;;;;;15.27;9.70;;;;;;;8.41;73.22;100695.63;4995894;28;20305;-80
2022/01/04 05:50:30;;;;;;;17.63;8.65;;;;;;;8.62;73.70;100718.94;4996052;28;20201;-81
2022/01/04 05:52:55;;;;;;;15.57;7.85;;;;;;;8.74;72.44;100715.03;4995636;28;20241;-80
2022/01/04 05:55:21;;;;;;;17.85;9.85;;;;;;;8.73;72.68;100701.38;4995516;28;20214;-79
2022/01/04 05:57:47;;;;;;;14.30;9.27;;;;;;;8.77;72.36;100702.56;4995299;28;20177;-80
2022/01/04 06:00:14;;;;;;;20.80;10.57;;;;;;;8.74;72.24;100698.03;4996179;28;20205;-80
2022/01/04 06:02:39;;;;;;;13.23;8.23;;;;;;;8.76;71.74;100700.75;4996533;28;20656;-81
2022/01/04 06:05:05;;;;;;;13.60;7.45;;;;;;;8.76;71.72;100706.78;4995751;28;20177;-81
2022/01/04 06:07:31;;;;;;;15.63;8.50;;;;;;;8.70;72.76;100718.94;4995850;28;20213;-81
2022/01/04 06:09:56;;;;;;;20.75;9.55;;;;;;;8.07;72.11;100618.19;4995393;28;20310;-82
2022/01/04 06:14:52;;;;;;;14.93;8.85;;;;;;;8.73;71.96;100709.03;4998698;28;20177;-81
2022/01/04 06:17:19;;;;;;;14.73;7.82;;;;;;;8.75;71.86;100706.59;4995888;28;20177;-81
2022/01/04 06:19:45;;;;;;;18.52;8.85;;;;;;;8.76;71.97;100709.31;4995076;28;20232;-79
2022/01/04 06:22:10;;;;;;;16.42;8.32;;;;;;;8.76;71.26;100700.75;4995057;28;20204;-80
2022/01/04 06:24:37;;;;;;;11.60;7.60;;;;;;;8.86;71.84;100723.00;4995461;28;20172;-82
2022/01/04 06:27:08;;;;;;;13.10;8.30;;;;;;;8.60;72.44;100706.03;4995029;28;20207;-80
2022/01/04 06:29:34;;;;;;;17.27;8.82;;;;;;;8.71;71.74;100695.19;4994892;28;20188;-80
2022/01/04 06:32:00;;;;;;;15.18;8.60;;;;;;;8.85;70.56;100699.13;4995393;28;20177;-81
2022/01/04 06:34:25;;;;;;;20.88;9.57;;;;;;;9.08;70.33;100726.00;4995509;28;20181;-83
2022/01/04 06:36:51;;;;;;;15.38;8.77;;;;;;;9.11;69.81;100726.31;4995890;28;20368;-81
2022/01/04 06:39:16;;;;;;;14.80;9.27;;;;;;;9.13;70.91;100715.50;4995177;28;20259;-81
2022/01/04 06:41:43;;;;;;;18.83;9.63;;;;;;;9.08;69.52;100711.56;4997121;28;20205;-82
2022/01/04 06:44:09;;;;;;;14.25;9.35;;;;;;;9.21;69.79;100718.78;4997619;28;20748;-80
2022/01/04 06:46:35;;;;;;;19.38;9.48;;;;;;;9.22;70.66;100725.69;5004477;28;20188;-79
2022/01/04 06:49:01;;;;;;;16.73;8.75;;;;;;;8.88;70.96;100655.97;5003049;28;20177;-81
2022/01/04 06:51:26;;;;;;;14.02;8.93;;;;;;;9.36;70.66;100707.47;5001267;28;20187;-80
2022/01/04 06:53:52;;;;;;;21.45;10.02;;;;;;;9.41;70.05;100702.81;5002081;28;20185;-80
2022/01/04 06:56:17;;;;;;;17.10;9.40;;;;;;;9.57;69.34;100730.75;5006053;28;20649;-79
2022/01/04 06:58:43;;;;;;;22.02;11.35;;;;;;;9.71;69.33;100738.97;5003479;28;20177;-81
2022/01/04 07:01:09;;;;;;;20.00;12.30;;;;;;;9.73;69.13;100741.69;5002586;28;20201;-80
2022/01/04 07:03:34;;;;;;;17.42;8.80;;;;;;;9.76;69.51;100733.41;5002905;28;20682;-79
2022/01/04 07:06:00;;;;;;;19.85;9.00;;;;;;;9.85;68.35;100741.97;4983778;28;20177;-79
2022/01/04 07:08:25;;;;;;;16.02;8.63;;;;;;;9.90;68.47;100749.28;5002789;28;20177;-80
2022/01/04 07:10:51;;;;;;;19.98;8.35;;;;;;;10.07;67.20;100744.88;5001662;28;20225;-79
2022/01/04 07:13:16;;;;;;;13.43;8.30;;;;;;;9.90;67.38;100736.50;5001208;28;20672;-80
2022/01/04 07:15:42;;;;;;;16.15;8.18;;;;;;;9.99;67.28;100761.16;4997733;28;20185;-81
2022/01/04 07:18:07;;;;;;;15.23;8.70;;;;;;;9.91;67.63;100765.59;4995855;28;20189;-80
2022/01/04 07:20:33;;;;;;;14.82;8.60;;;;;;;9.52;67.20;100688.47;4994736;28;20205;-80
2022/01/04 07:22:58;;;;;;;14.85;8.68;;;;;;;9.91;66.84;100761.34;4995571;28;20610;-80
2022/01/04 07:25:24;;;;;;;13.55;8.15;;;;;;;10.05;66.76;100778.00;4995599;28;20719;-78
2022/01/04 07:27:50;;;;;;;16.70;8.75;;;;;;;10.09;67.98;100786.88;4996048;28;20645;-79
2022/01/04 07:30:15;;;;;;;22.48;9.65;;;;;;;10.17;67.07;100780.84;4995676;28;20182;-79
2022/01/04 07:32:41;;;;;;;15.70;10.38;;;;;;;10.13;66.42;100765.94;5003604;28;20249;-79
2022/01/04 07:35:07;;;;;;;18.17;11.07;;;;;;;10.27;66.32;100780.06;5001084;28;20173;-81
2022/01/04 07:37:32;;;;;;;16.90;8.15;;;;;;;10.27;66.40;100780.97;5000899;28;20556;-77
2022/01/04 07:39:58;;;;;;;16.05;8.43;;;;;;;10.22;65.97;100758.19;4997166;28;20260;-78
2022/01/04 07:42:23;;;;;;;14.85;8.20;;;;;;;10.34;65.74;100772.19;4996822;28;20197;-78
2022/01/04 07:44:49;;;;;;;15.15;7.78;;;;;;;10.34;66.15;100770.56;4996069;28;20169;-78
2022/01/04 07:47:14;;;;;;;13.93;8.45;;;;;;;10.02;66.21;100702.59;4993847;28;20696;-78
2022/01/04 07:49:40;;;;;;;19.83;8.85;;;;;;;10.53;65.76;100764.56;4993791;28;20224;-75
2022/01/04 07:52:05;;;;;;;16.45;8.10;;;;;;;10.44;65.36;100754.38;4993234;28;20177;-75
2022/01/04 07:54:31;;;;;;;14.38;7.53;;;;;;;10.51;64.60;100763.53;4993806;28;20173;-76
2022/01/04 07:56:56;;;;;;;19.15;7.82;;;;;;;10.36;64.67;100712.66;4993966;28;20173;-77
2022/01/04 07:59:22;;;;;;;16.67;7.72;;;;;;;10.69;65.08;100759.22;4993822;28;20185;-76
2022/01/04 08:01:47;;;;;;;27.73;8.88;;;;;;;10.64;65.07;100746.84;4993355;28;20549;-78
2022/01/04 08:04:13;;;;;;;15.07;9.40;;;;;;;10.94;65.23;100742.72;4994182;28;20184;-80
2022/01/04 08:06:39;;;;;;;17.65;8.60;;;;;;;11.05;63.61;100734.31;4992782;28;20173;-75
2022/01/04 08:09:05;;;;;;;15.20;7.88;;;;;;;10.64;63.38;100657.16;4992463;28;20178;-77
2022/01/04 08:11:31;;;;;;;15.35;7.40;;;;;;;11.29;63.45;100748.44;4992437;28;20173;-76
2022/01/04 08:13:56;;;;;;;16.17;7.40;;;;;;;11.40;62.52;100743.38;4992593;28;20289;-77
2022/01/04 08:16:22;;;;;;;13.10;6.32;;;;;;;11.06;62.56;100696.78;4992065;28;20177;-76
2022/01/04 08:18:47;;;;;;;15.30;6.50;;;;;;;11.48;62.55;100752.66;4974998;28;20186;-79
2022/01/04 08:21:13;;;;;;;11.10;6.00;;;;;;;11.73;62.14;100774.56;4991962;28;20209;-75
2022/01/04 08:23:38;;;;;;;13.75;7.25;;;;;;;11.86;61.42;100781.72;4992237;28;20185;-77
2022/01/04 08:26:04;;;;;;;10.27;6.45;;;;;;;11.80;60.92;100752.91;4991773;28;20651;-77
2022/01/04 08:28:30;;;;;;;14.18;7.60;;;;;;;11.90;60.92;100760.72;4992140;28;20184;-76
2022/01/04 08:30:55;;;;;;;19.00;7.15;;;;;;;12.04;59.16;100731.06;4992022;28;20184;-76
2022/01/04 08:33:21;;;;;;;21.17;7.38;;;;;;;12.29;58.11;100757.19;4992009;28;20181;-77
2022/01/04 08:35:47;;;;;;;11.48;6.20;;;;;;;12.46;57.50;100751.81;4974304;28;20225;-78
2022/01/04 08:38:13;;;;;;;8.88;5.03;;;;;;;12.75;56.15;100770.47;4975247;28;20212;-82
2022/01/04 08:40:38;;;;;;;14.63;6.97;;;;;;;12.45;56.22;100726.88;4974935;28;20221;-80
2022/01/04 08:43:04;;;;;;;10.73;6.68;;;;;;;12.89;55.47;100764.78;4974887;28;20292;-78
2022/01/04 08:45:30;;;;;;;17.70;7.32;;;;;;;12.94;55.07;100746.41;4992063;28;20193;-80
2022/01/04 08:47:56;;;;;;;9.13;6.15;;;;;;;13.20;54.19;100732.19;4992789;28;20188;-80
2022/01/04 08:50:21;;;;;;;10.43;5.53;;;;;;;13.26;54.80;100747.28;4992968;28;20182;-80
2022/01/04 08:52:51;;;;;;;12.18;6.13;;;;;;;13.35;53.70;100759.22;4992278;28;20232;-78
2022/01/04 08:55:17;;;;;;;10.93;5.35;;;;;;;13.29;53.22;100717.53;4992677;28;20213;-83
2022/01/04 08:57:43;;;;;;;9.50;5.20;;;;;;;13.56;53.16;100761.72;4992654;28;20248;-81
2022/01/04 09:00:10;;;;;;;9.68;5.38;;;;;;;13.59;53.07;100743.97;4992703;28;20657;-81
2022/01/04 09:02:37;;;;;;;10.73;5.75;;;;;;;13.65;52.62;100739.31;4992003;28;20565;-79
2022/01/04 09:05:03;;;;;;;10.00;5.00;;;;;;;13.67;52.91;100730.00;4974664;28;20184;-79
2022/01/04 09:07:29;;;;;;;11.27;5.53;;;;;;;13.89;52.58;100739.44;4994778;28;20173;-78
2022/01/04 09:09:54;;;;;;;10.52;5.68;;;;;;;13.93;52.34;100747.53;4996490;28;20213;-82
2022/01/04 09:12:23;;;;;;;12.70;6.50;;;;;;;13.75;52.13;100677.44;4997119;28;20208;-82
2022/01/04 09:14:58;;;;;;;11.20;5.93;;;;;;;14.23;51.98;100743.84;4999735;28;20673;-80
2022/01/04 09:20:11;;;;;;;13.77;6.80;;;;;;;14.14;51.91;100696.75;4996918;28;20267;-79
2022/01/04 09:22:37;;;;;;;11.82;6.13;;;;;;;14.36;51.97;100729.34;4996769;28;20177;-79
2022/01/04 09:25:04;;;;;;;11.15;7.43;;;;;;;14.53;51.51;100713.53;4995317;28;20264;-78
2022/01/04 09:27:30;;;;;;;12.60;6.60;;;;;;;14.38;50.83;100653.03;4977509;28;20205;-77
2022/01/04 09:29:56;;;;;;;13.02;6.53;;;;;;;14.79;50.09;100715.47;4995483;28;20228;-77
2022/01/04 09:32:22;;;;;;;9.80;6.03;;;;;;;14.60;49.67;100663.31;4995239;28;20670;-77
2022/01/04 09:34:48;;;;;;;10.73;6.68;;;;;;;14.79;49.79;100679.34;4995392;28;20264;-75
2022/01/04 09:37:15;;;;;;;12.00;6.40;;;;;;;15.12;49.85;100711.91;4995765;28;20181;-78
2022/01/04 09:39:40;;;;;;;12.93;6.68;;;;;;;15.17;48.85;100660.63;4995635;28;20203;-76
2022/01/04 09:42:09;;;;;;;14.70;7.45;;;;;;;15.58;48.23;100683.38;4995127;28;20197;-76
2022/01/04 09:44:35;;;;;;;13.70;7.20;;;;;;;15.40;47.55;100605.50;4994864;28;20628;-78
2022/01/04 09:47:03;;;;;;;9.55;6.30;;;;;;;16.09;46.83;100687.84;4995582;28;20177;-77
2022/01/04 09:49:29;;;;;;;14.02;6.55;;;;;;;16.10;45.85;100627.59;4995175;28;20177;-78
2022/01/04 09:51:56;;;;;;;12.52;6.70;;;;;;;16.43;45.91;100675.53;4995267;28;20276;-75
2022/01/04 09:54:24;;;;;;;12.13;6.00;;;;;;;16.39;45.36;100655.44;4994487;28;20169;-77
2022/01/04 09:56:51;;;;;;;12.68;6.80;;;;;;;16.55;45.16;100663.41;4995004;28;20261;-76
2022/01/04 09:59:18;;;;;;;17.77;7.32;;;;;;;16.66;45.00;100660.66;4996023;28;20561;-77
2022/01/04 10:01:49;;;;;;;14.95;7.35;;;;;;;16.77;44.81;100647.66;4996244;28;20201;-77
2022/01/04 10:04:16;;;;;;;12.40;6.18;;;;;;;16.91;44.90;100664.09;4997330;28;20193;-76
2022/01/04 10:07:05;;;;;;;11.45;5.65;;;;;;;17.06;44.05;100648.66;4978838;28;20232;-77
2022/01/04 10:09:44;;;;;;;10.20;5.30;;;;;;;17.08;44.40;100649.66;4996665;28;20316;-78
2022/01/04 10:12:10;;;;;;;8.60;4.95;;;;;;;17.10;43.84;100627.34;4995447;28;20653;-75
2022/01/04 10:14:47;;;;;;;12.18;5.45;;;;;;;17.30;43.52;100634.69;4995857;28;20184;-80
2022/01/04 10:17:20;;;;;;;12.65;6.32;;;;;;;17.43;43.49;100633.78;4996573;28;20697;-80
2022/01/04 10:19:48;;;;;;;6.90;4.55;;;;;;;17.54;42.80;100609.44;4999745;28;20205;-78
2022/01/04 10:22:19;;;;;;;7.38;5.13;;;;;;;17.48;42.50;100593.53;4995159;28;20237;-77
2022/01/04 10:24:49;;;;;;;9.43;4.88;;;;;;;17.62;42.40;100604.72;4977794;28;20453;-78
2022/01/04 10:27:48;;;;;;;9.65;5.40;;;;;;;17.73;42.11;100598.53;4995852;28;20256;-78
2022/01/04 10:30:28;;;;;;;8.65;5.20;;;;;;;17.84;42.35;100612.16;4996106;28;20582;-76
2022/01/04 10:33:00;;;;;;;12.50;5.90;;;;;;;17.86;41.93;100570.78;4995729;28;20205;-80
2022/01/04 10:35:27;;;;;;;10.43;4.97;;;;;;;18.12;41.69;100600.84;4996927;28;20716;-76
2022/01/04 10:37:54;;;;;;;12.35;6.07;;;;;;;18.35;41.75;100597.00;4997425;28;20177;-80
2022/01/04 10:40:20;;;;;;;11.73;6.00;;;;;;;18.44;40.62;100561.22;4997512;28;20809;-77
2022/01/04 10:42:46;;;;;;;9.48;5.22;;;;;;;18.75;40.54;100584.66;4996717;28;20220;-76
2022/01/04 10:45:22;;;;;;;8.73;5.55;;;;;;;18.82;40.64;100579.03;4994610;28;20685;-78
2022/01/04 10:47:47;;;;;;;7.30;4.35;;;;;;;18.71;39.16;100535.97;4994355;28;20572;-77
2022/01/04 10:50:27;;;;;;;9.50;4.72;;;;;;;18.93;39.55;100567.53;4994653;28;20169;-77
2022/01/04 10:52:53;;;;;;;12.82;5.28;;;;;;;19.22;38.81;100556.97;4994097;28;20173;-77
2022/01/04 10:55:18;;;;;;;11.25;5.35;;;;;;;19.46;38.46;100588.59;4993780;28;20237;-77
2022/01/04 10:57:44;;;;;;;14.52;5.90;;;;;;;19.68;39.01;100590.66;4994144;28;20183;-79
2022/01/04 11:00:22;;;;;;;12.85;5.03;;;;;;;19.39;38.28;100523.31;4993833;28;20700;-78
2022/01/04 11:02:48;;;;;;;11.13;4.68;;;;;;;19.85;38.57;100561.25;4994121;28;20194;-78
2022/01/04 11:05:17;;;;;;;11.30;5.60;;;;;;;20.00;38.25;100561.13;4993758;28;20205;-77
2022/01/04 11:08:03;;;;;;;10.30;4.85;;;;;;;20.30;37.68;100586.09;4993816;28;20177;-77
2022/01/04 11:10:31;;;;;;;10.15;5.00;;;;;;;20.20;37.68;100582.97;4993562;28;20229;-77
2022/01/04 11:12:58;;;;;;;8.40;4.28;;;;;;;19.98;38.26;100565.38;4993395;28;20265;-77
2022/01/04 11:15:27;;;;;;;8.05;3.65;;;;;;;19.90;38.02;100533.75;4993377;28;20568;-78
2022/01/04 11:17:54;;;;;;;14.05;4.85;;;;;;;19.98;38.62;100567.97;4993446;28;20188;-77
2022/01/04 11:20:20;;;;;;;9.15;5.13;;;;;;;20.26;38.54;100573.78;4993270;28;20197;-78
2022/01/04 11:22:47;;;;;;;10.70;5.35;;;;;;;20.19;38.63;100531.78;4993270;28;20688;-76
2022/01/04 11:25:15;;;;;;;15.35;4.78;;;;;;;20.69;38.13;100575.06;4993155;28;20181;-76
2022/01/04 11:27:42;;;;;;;11.43;4.93;;;;;;;20.95;37.12;100585.00;4993083;28;20313;-76
2022/01/04 11:30:46;;;;;;;16.15;5.22;;;;;;;20.91;37.91;100572.66;4992565;28;20232;-81
2022/01/04 11:33:25;;;;;;;10.75;5.78;;;;;;;21.11;37.62;100575.31;4989808;28;20213;-78
2022/01/04 11:35:51;;;;;;;16.98;6.32;;;;;;;20.70;37.56;100519.56;4992755;28;20177;-77